createdAt,value
2023-02-12T00:00:09.068Z,1010.08
2023-02-12T00:01:09.238Z,1010.08
2023-02-12T00:02:09.222Z,1010.15
2023-02-12T00:03:09.102Z,1010.12
2023-02-12T00:04:08.989Z,1010.16
2023-02-12T00:05:08.986Z,1010.16
2023-02-12T00:06:08.987Z,1010.13
2023-02-12T00:07:08.967Z,1010.15
2023-02-12T00:08:08.954Z,1010.15
2023-02-12T00:09:08.928Z,1010.19
2023-02-12T00:10:08.921Z,1010.22
2023-02-12T00:11:08.916Z,1010.23
2023-02-12T00:12:08.911Z,1010.20
2023-02-12T00:13:08.931Z,1010.19
2023-02-12T00:14:08.899Z,1010.22
2023-02-12T00:15:08.888Z,1010.19
2023-02-12T00:16:08.974Z,1010.20
2023-02-12T00:17:08.858Z,1010.18
2023-02-12T00:18:08.829Z,1010.14
2023-02-12T00:19:08.813Z,1010.19
2023-02-12T00:20:08.861Z,1010.17
2023-02-12T00:21:08.885Z,1010.18
2023-02-12T00:22:08.770Z,1010.11
2023-02-12T00:23:08.753Z,1010.10
2023-02-12T00:24:08.754Z,1010.09
2023-02-12T00:25:08.937Z,1010.08
2023-02-12T00:26:08.712Z,1010.10
2023-02-12T00:27:08.751Z,1010.08
2023-02-12T00:28:08.831Z,1010.02
2023-02-12T00:29:08.725Z,1010.00
2023-02-12T00:30:08.717Z,1010.07
2023-02-12T00:31:09.111Z,1010.08
2023-02-12T00:32:08.675Z,1010.10
2023-02-12T00:33:08.968Z,1010.13
2023-02-12T00:34:08.660Z,1010.13
2023-02-12T00:35:08.645Z,1010.13
2023-02-12T00:36:08.876Z,1010.11
2023-02-12T00:37:08.619Z,1010.10
2023-02-12T00:38:08.628Z,1010.14
2023-02-12T00:39:08.664Z,1010.13
2023-02-12T00:40:08.579Z,1010.13
2023-02-12T00:41:08.598Z,1010.17
2023-02-12T00:42:08.558Z,1010.20
2023-02-12T00:43:08.571Z,1010.19
2023-02-12T00:44:08.745Z,1010.25
2023-02-12T00:45:08.534Z,1010.26
2023-02-12T00:46:08.510Z,1010.27
2023-02-12T00:47:08.514Z,1010.26
2023-02-12T00:48:08.457Z,1010.27
2023-02-12T00:49:08.471Z,1010.32
2023-02-12T00:50:08.466Z,1010.31
2023-02-12T00:51:08.442Z,1010.37
2023-02-12T00:52:08.607Z,1010.37
2023-02-12T00:53:08.400Z,1010.38
2023-02-12T00:54:08.397Z,1010.37
2023-02-12T00:55:08.362Z,1010.37
2023-02-12T00:56:08.351Z,1010.35
2023-02-12T00:57:08.351Z,1010.36
2023-02-12T00:58:08.366Z,1010.36
2023-02-12T00:59:08.355Z,1010.36
2023-02-12T01:00:08.348Z,1010.31
2023-02-12T01:01:08.540Z,1010.35
2023-02-12T01:02:08.288Z,1010.34
2023-02-12T01:03:08.290Z,1010.39
2023-02-12T01:04:08.259Z,1010.33
2023-02-12T01:05:08.354Z,1010.35
2023-02-12T01:06:08.249Z,1010.34
2023-02-12T01:07:08.260Z,1010.37
2023-02-12T01:08:08.271Z,1010.38
2023-02-12T01:09:08.210Z,1010.35
2023-02-12T01:10:08.220Z,1010.37
2023-02-12T01:11:08.201Z,1010.38
2023-02-12T01:12:08.184Z,1010.38
2023-02-12T01:13:08.173Z,1010.36
2023-02-12T01:14:08.162Z,1010.35
2023-02-12T01:15:08.201Z,1010.36
2023-02-12T01:16:08.274Z,1010.34
2023-02-12T01:17:08.149Z,1010.32
2023-02-12T01:18:08.337Z,1010.33
2023-02-12T01:19:08.219Z,1010.34
2023-02-12T01:20:08.097Z,1010.35
2023-02-12T01:21:08.072Z,1010.35
2023-02-12T01:22:08.065Z,1010.35
2023-02-12T01:23:08.242Z,1010.37
2023-02-12T01:24:08.029Z,1010.33
2023-02-12T01:25:08.224Z,1010.37
2023-02-12T01:26:08.141Z,1010.39
2023-02-12T01:27:07.990Z,1010.41
2023-02-12T01:28:08.126Z,1010.37
2023-02-12T01:29:08.026Z,1010.40
2023-02-12T01:30:08.030Z,1010.40
2023-02-12T01:31:08.055Z,1010.36
2023-02-12T01:32:08.075Z,1010.43
2023-02-12T01:33:07.953Z,1010.40
2023-02-12T01:34:07.907Z,1010.41
2023-02-12T01:35:07.912Z,1010.40
2023-02-12T01:36:07.888Z,1010.42
2023-02-12T01:37:07.905Z,1010.42
2023-02-12T01:38:07.861Z,1010.41
2023-02-12T01:39:07.869Z,1010.40
2023-02-12T01:40:07.888Z,1010.41
2023-02-12T01:41:07.862Z,1010.38
2023-02-12T01:42:07.922Z,1010.38
2023-02-12T01:43:07.803Z,1010.40
2023-02-12T01:44:07.911Z,1010.44
2023-02-12T01:45:07.808Z,1010.43
2023-02-12T01:46:07.874Z,1010.40
2023-02-12T01:47:07.783Z,1010.44
2023-02-12T01:48:07.806Z,1010.37
2023-02-12T01:49:07.760Z,1010.43
2023-02-12T01:50:07.742Z,1010.40
2023-02-12T01:51:07.906Z,1010.40
2023-02-12T01:52:07.711Z,1010.40
2023-02-12T01:53:07.709Z,1010.39
2023-02-12T01:54:07.689Z,1010.40
2023-02-12T01:55:07.763Z,1010.39
2023-02-12T01:56:07.706Z,1010.42
2023-02-12T01:57:07.635Z,1010.40
2023-02-12T01:58:07.643Z,1010.39
2023-02-12T01:59:07.646Z,1010.42
2023-02-12T02:00:07.622Z,1010.40
2023-02-12T02:01:07.660Z,1010.41
2023-02-12T02:02:07.682Z,1010.43
2023-02-12T02:03:07.640Z,1010.39
2023-02-12T02:04:07.662Z,1010.41
2023-02-12T02:05:07.642Z,1010.41
2023-02-12T02:06:07.625Z,1010.34
2023-02-12T02:07:07.816Z,1010.33
2023-02-12T02:08:07.480Z,1010.34
2023-02-12T02:09:07.724Z,1010.38
2023-02-12T02:10:07.463Z,1010.36
2023-02-12T02:11:07.434Z,1010.34
2023-02-12T02:12:07.460Z,1010.33
2023-02-12T02:13:07.626Z,1010.37
2023-02-12T02:14:07.509Z,1010.38
2023-02-12T02:15:07.401Z,1010.37
2023-02-12T02:16:07.386Z,1010.38
2023-02-12T02:17:07.407Z,1010.41
2023-02-12T02:18:07.643Z,1010.36
2023-02-12T02:19:07.348Z,1010.40
2023-02-12T02:20:07.356Z,1010.38
2023-02-12T02:21:07.353Z,1010.38
2023-02-12T02:22:07.400Z,1010.40
2023-02-12T02:23:07.574Z,1010.38
2023-02-12T02:24:07.283Z,1010.35
2023-02-12T02:25:07.306Z,1010.36
2023-02-12T02:26:07.291Z,1010.31
2023-02-12T02:27:07.272Z,1010.38
2023-02-12T02:28:07.282Z,1010.30
2023-02-12T02:29:07.233Z,1010.35
2023-02-12T02:30:07.207Z,1010.34
2023-02-12T02:31:07.318Z,1010.27
2023-02-12T02:32:07.285Z,1010.28
2023-02-12T02:33:07.208Z,1010.31
2023-02-12T02:34:07.169Z,1010.28
2023-02-12T02:35:07.165Z,1010.27
2023-02-12T02:36:07.135Z,1010.25
2023-02-12T02:37:07.242Z,1010.24
2023-02-12T02:38:07.138Z,1010.20
2023-02-12T02:39:07.245Z,1010.13
2023-02-12T02:40:07.131Z,1010.15
2023-02-12T02:41:07.106Z,1010.17
2023-02-12T02:42:07.069Z,1010.12
2023-02-12T02:43:07.099Z,1010.15
2023-02-12T02:44:07.073Z,1010.12
2023-02-12T02:45:07.074Z,1010.13
2023-02-12T02:46:07.051Z,1010.19
2023-02-12T02:47:07.055Z,1010.09
2023-02-12T02:48:06.995Z,1010.17
2023-02-12T02:49:07.000Z,1010.19
2023-02-12T02:50:07.118Z,1010.16
2023-02-12T02:51:07.029Z,1010.13
2023-02-12T02:52:07.049Z,1010.18
2023-02-12T02:53:07.037Z,1010.17
2023-02-12T02:54:07.015Z,1010.17
2023-02-12T02:55:07.021Z,1010.18
2023-02-12T02:56:07.030Z,1010.13
2023-02-12T02:57:06.982Z,1010.12
2023-02-12T02:58:06.924Z,1010.13
2023-02-12T02:59:06.883Z,1010.09
2023-02-12T03:00:06.914Z,1010.12
2023-02-12T03:01:07.155Z,1010.05
2023-02-12T03:02:06.838Z,1010.09
2023-02-12T03:03:07.172Z,1010.06
2023-02-12T03:04:06.819Z,1010.07
2023-02-12T03:05:06.800Z,1010.09
2023-02-12T03:06:06.803Z,1010.06
2023-02-12T03:07:06.765Z,1010.12
2023-02-12T03:08:06.781Z,1010.10
2023-02-12T03:09:06.767Z,1010.09
2023-02-12T03:10:06.715Z,1010.10
2023-02-12T03:11:06.725Z,1010.13
2023-02-12T03:12:06.730Z,1010.09
2023-02-12T03:13:06.686Z,1010.10
2023-02-12T03:14:06.685Z,1010.12
2023-02-12T03:15:06.662Z,1010.12
2023-02-12T03:16:06.883Z,1010.18
2023-02-12T03:17:06.687Z,1010.18
2023-02-12T03:18:06.665Z,1010.19
2023-02-12T03:19:06.622Z,1010.16
2023-02-12T03:20:06.859Z,1010.24
2023-02-12T03:21:06.604Z,1010.20
2023-02-12T03:22:06.621Z,1010.20
2023-02-12T03:23:06.603Z,1010.23
2023-02-12T03:24:06.600Z,1010.27
2023-02-12T03:25:06.560Z,1010.25
2023-02-12T03:26:06.616Z,1010.28
2023-02-12T03:27:06.556Z,1010.29
2023-02-12T03:28:06.593Z,1010.34
2023-02-12T03:29:06.494Z,1010.32
2023-02-12T03:30:06.503Z,1010.33
2023-02-12T03:31:06.557Z,1010.34
2023-02-12T03:32:06.490Z,1010.38
2023-02-12T03:33:06.474Z,1010.37
2023-02-12T03:34:06.456Z,1010.39
2023-02-12T03:35:06.417Z,1010.37
2023-02-12T03:36:06.427Z,1010.39
2023-02-12T03:37:06.408Z,1010.43
2023-02-12T03:38:06.427Z,1010.40
2023-02-12T03:39:06.363Z,1010.43
2023-02-12T03:40:06.361Z,1010.44
2023-02-12T03:41:06.353Z,1010.42
2023-02-12T03:42:06.329Z,1010.45
2023-02-12T03:43:06.406Z,1010.47
2023-02-12T03:44:06.321Z,1010.45
2023-02-12T03:45:06.326Z,1010.45
2023-02-12T03:46:06.446Z,1010.44
2023-02-12T03:47:06.285Z,1010.46
2023-02-12T03:48:06.289Z,1010.48
2023-02-12T03:49:06.501Z,1010.47
2023-02-12T03:50:06.264Z,1010.50
2023-02-12T03:51:06.249Z,1010.50
2023-02-12T03:52:06.225Z,1010.49
2023-02-12T03:53:06.411Z,1010.49
2023-02-12T03:54:06.204Z,1010.52
2023-02-12T03:55:06.196Z,1010.47
2023-02-12T03:56:06.214Z,1010.52
2023-02-12T03:57:06.605Z,1010.52
2023-02-12T03:58:06.146Z,1010.53
2023-02-12T03:59:06.194Z,1010.51
2023-02-12T04:00:06.108Z,1010.52
2023-02-12T04:01:06.249Z,1010.56
2023-02-12T04:02:06.203Z,1010.64
2023-02-12T04:03:06.096Z,1010.59
2023-02-12T04:04:06.177Z,1010.66
2023-02-12T04:05:06.044Z,1010.69
2023-02-12T04:06:06.258Z,1010.67
2023-02-12T04:07:06.057Z,1010.72
2023-02-12T04:08:06.067Z,1010.73
2023-02-12T04:09:05.998Z,1010.73
2023-02-12T04:10:06.001Z,1010.71
2023-02-12T04:11:06.008Z,1010.78
2023-02-12T04:12:06.006Z,1010.75
2023-02-12T04:13:05.988Z,1010.77
2023-02-12T04:14:05.943Z,1010.79
2023-02-12T04:15:06.149Z,1010.76
2023-02-12T04:16:05.942Z,1010.83
2023-02-12T04:17:05.895Z,1010.83
2023-02-12T04:18:05.900Z,1010.85
2023-02-12T04:19:05.893Z,1010.81
2023-02-12T04:20:05.873Z,1010.83
2023-02-12T04:21:05.927Z,1010.89
2023-02-12T04:22:05.866Z,1010.90
2023-02-12T04:23:05.847Z,1010.93
2023-02-12T04:24:05.826Z,1010.93
2023-02-12T04:25:05.821Z,1010.94
2023-02-12T04:26:05.802Z,1010.97
2023-02-12T04:27:05.813Z,1010.94
2023-02-12T04:28:05.803Z,1010.93
2023-02-12T04:29:05.807Z,1010.95
2023-02-12T04:30:05.798Z,1010.91
2023-02-12T04:31:05.865Z,1010.95
2023-02-12T04:32:05.715Z,1010.90
2023-02-12T04:33:05.724Z,1010.91
2023-02-12T04:34:05.730Z,1010.92
2023-02-12T04:35:05.690Z,1010.89
2023-02-12T04:36:05.704Z,1010.92
2023-02-12T04:37:05.668Z,1010.95
2023-02-12T04:38:05.762Z,1010.91
2023-02-12T04:39:05.672Z,1010.95
2023-02-12T04:40:05.842Z,1010.94
2023-02-12T04:41:05.683Z,1010.92
2023-02-12T04:42:05.669Z,1010.93
2023-02-12T04:43:05.593Z,1010.96
2023-02-12T04:44:05.641Z,1010.97
2023-02-12T04:45:05.584Z,1010.98
2023-02-12T04:46:05.592Z,1010.99
2023-02-12T04:47:05.592Z,1010.97
2023-02-12T04:48:05.536Z,1011.00
2023-02-12T04:49:05.514Z,1011.03
2023-02-12T04:50:05.506Z,1011.05
2023-02-12T04:51:05.499Z,1011.01
2023-02-12T04:52:05.476Z,1011.00
2023-02-12T04:53:05.670Z,1010.98
2023-02-12T04:54:05.448Z,1011.00
2023-02-12T04:55:05.466Z,1011.02
2023-02-12T04:56:05.445Z,1011.00
2023-02-12T04:57:05.467Z,1011.02
2023-02-12T04:58:05.458Z,1011.04
2023-02-12T04:59:05.414Z,1011.00
2023-02-12T05:00:05.432Z,1011.05
2023-02-12T05:01:05.404Z,1011.04
2023-02-12T05:02:05.423Z,1011.07
2023-02-12T05:03:05.367Z,1011.06
2023-02-12T05:04:05.385Z,1011.06
2023-02-12T05:05:05.405Z,1011.04
2023-02-12T05:06:05.335Z,1011.01
2023-02-12T05:07:05.517Z,1011.04
2023-02-12T05:08:05.342Z,1011.01
2023-02-12T05:09:05.288Z,1011.01
2023-02-12T05:10:05.311Z,1011.04
2023-02-12T05:11:05.268Z,1011.04
2023-02-12T05:12:05.254Z,1011.03
2023-02-12T05:13:05.243Z,1011.06
2023-02-12T05:14:05.250Z,1011.04
2023-02-12T05:15:05.216Z,1011.06
2023-02-12T05:16:05.282Z,1011.02
2023-02-12T05:17:05.408Z,1011.04
2023-02-12T05:18:05.184Z,1011.03
2023-02-12T05:19:05.189Z,1011.05
2023-02-12T05:20:05.142Z,1011.02
2023-02-12T05:21:05.297Z,1011.02
2023-02-12T05:22:05.144Z,1010.99
2023-02-12T05:23:05.226Z,1011.02
2023-02-12T05:24:05.313Z,1011.02
2023-02-12T05:25:05.104Z,1011.02
2023-02-12T05:26:05.093Z,1011.00
2023-02-12T05:27:05.311Z,1011.01
2023-02-12T05:28:05.132Z,1011.03
2023-02-12T05:29:05.087Z,1010.99
2023-02-12T05:30:05.094Z,1010.97
2023-02-12T05:31:05.383Z,1010.99
2023-02-12T05:32:05.266Z,1010.98
2023-02-12T05:33:05.082Z,1010.95
2023-02-12T05:34:05.015Z,1010.97
2023-02-12T05:35:05.019Z,1011.03
2023-02-12T05:36:04.977Z,1011.01
2023-02-12T05:37:04.983Z,1011.02
2023-02-12T05:38:04.975Z,1011.02
2023-02-12T05:39:04.934Z,1011.03
2023-02-12T05:40:04.921Z,1011.04
2023-02-12T05:41:05.010Z,1011.02
2023-02-12T05:42:04.891Z,1011.05
2023-02-12T05:43:04.892Z,1011.06
2023-02-12T05:44:04.875Z,1011.03
2023-02-12T05:45:04.893Z,1011.07
2023-02-12T05:46:04.917Z,1011.09
2023-02-12T05:47:04.915Z,1011.06
2023-02-12T05:48:04.885Z,1011.07
2023-02-12T05:49:04.878Z,1011.05
2023-02-12T05:50:04.826Z,1011.07
2023-02-12T05:51:05.061Z,1011.07
2023-02-12T05:52:05.061Z,1011.04
2023-02-12T05:53:04.797Z,1011.10
2023-02-12T05:54:04.771Z,1011.06
2023-02-12T05:55:04.745Z,1011.09
2023-02-12T05:56:04.743Z,1011.11
2023-02-12T05:57:04.736Z,1011.09
2023-02-12T05:58:04.885Z,1011.08
2023-02-12T05:59:04.716Z,1011.08
2023-02-12T06:00:04.705Z,1011.05
2023-02-12T06:01:04.766Z,1011.11
2023-02-12T06:02:04.692Z,1011.10
2023-02-12T06:03:04.676Z,1011.13
2023-02-12T06:04:04.754Z,1011.10
2023-02-12T06:05:04.627Z,1011.09
2023-02-12T06:06:04.582Z,1011.06
2023-02-12T06:07:04.705Z,1011.12
2023-02-12T06:08:04.639Z,1011.13
2023-02-12T06:09:04.621Z,1011.10
2023-02-12T06:10:04.578Z,1011.16
2023-02-12T06:11:04.653Z,1011.19
2023-02-12T06:12:04.646Z,1011.17
2023-02-12T06:13:04.540Z,1011.22
2023-02-12T06:14:04.611Z,1011.16
2023-02-12T06:15:04.497Z,1011.22
2023-02-12T06:16:04.567Z,1011.21
2023-02-12T06:17:04.517Z,1011.21
2023-02-12T06:18:04.489Z,1011.18
2023-02-12T06:19:04.503Z,1011.17
2023-02-12T06:20:04.625Z,1011.14
2023-02-12T06:21:04.447Z,1011.17
2023-02-12T06:22:04.518Z,1011.18
2023-02-12T06:23:04.479Z,1011.21
2023-02-12T06:24:04.441Z,1011.20
2023-02-12T06:25:04.383Z,1011.21
2023-02-12T06:26:04.436Z,1011.20
2023-02-12T06:27:04.390Z,1011.21
2023-02-12T06:28:04.378Z,1011.20
2023-02-12T06:29:04.315Z,1011.22
2023-02-12T06:30:04.313Z,1011.23
2023-02-12T06:31:04.437Z,1011.22
2023-02-12T06:32:04.442Z,1011.24
2023-02-12T06:33:04.300Z,1011.25
2023-02-12T06:34:04.329Z,1011.26
2023-02-12T06:35:04.296Z,1011.29
2023-02-12T06:36:04.257Z,1011.24
2023-02-12T06:37:04.232Z,1011.23
2023-02-12T06:38:04.213Z,1011.25
2023-02-12T06:39:04.428Z,1011.27
2023-02-12T06:40:04.173Z,1011.31
2023-02-12T06:41:04.175Z,1011.33
2023-02-12T06:42:04.204Z,1011.38
2023-02-12T06:43:04.268Z,1011.37
2023-02-12T06:44:04.271Z,1011.42
2023-02-12T06:45:04.155Z,1011.39
2023-02-12T06:46:04.191Z,1011.47
2023-02-12T06:47:04.123Z,1011.52
2023-02-12T06:48:04.110Z,1011.45
2023-02-12T06:49:04.095Z,1011.47
2023-02-12T06:50:04.085Z,1011.49
2023-02-12T06:51:04.057Z,1011.52
2023-02-12T06:52:04.070Z,1011.51
2023-02-12T06:53:04.062Z,1011.56
2023-02-12T06:54:04.023Z,1011.55
2023-02-12T06:55:04.085Z,1011.59
2023-02-12T06:56:04.018Z,1011.60
2023-02-12T06:57:04.003Z,1011.61
2023-02-12T06:58:03.989Z,1011.63
2023-02-12T06:59:04.023Z,1011.63
2023-02-12T07:00:03.973Z,1011.60
2023-02-12T07:01:04.200Z,1011.64
2023-02-12T07:02:03.953Z,1011.68
2023-02-12T07:03:03.943Z,1011.67
2023-02-12T07:04:03.996Z,1011.70
2023-02-12T07:05:03.902Z,1011.69
2023-02-12T07:06:03.907Z,1011.71
2023-02-12T07:07:03.914Z,1011.74
2023-02-12T07:08:03.926Z,1011.68
2023-02-12T07:09:03.877Z,1011.70
2023-02-12T07:10:03.832Z,1011.67
2023-02-12T07:11:04.071Z,1011.72
2023-02-12T07:12:04.029Z,1011.72
2023-02-12T07:13:04.016Z,1011.72
2023-02-12T07:14:03.814Z,1011.75
2023-02-12T07:15:03.781Z,1011.75
2023-02-12T07:16:03.821Z,1011.80
2023-02-12T07:17:03.774Z,1011.74
2023-02-12T07:18:03.741Z,1011.74
2023-02-12T07:19:03.736Z,1011.73
2023-02-12T07:20:03.727Z,1011.76
2023-02-12T07:21:03.696Z,1011.77
2023-02-12T07:22:03.678Z,1011.78
2023-02-12T07:23:03.658Z,1011.81
2023-02-12T07:24:03.670Z,1011.78
2023-02-12T07:25:03.663Z,1011.82
2023-02-12T07:26:03.685Z,1011.81
2023-02-12T07:27:03.680Z,1011.82
2023-02-12T07:28:03.766Z,1011.84
2023-02-12T07:29:03.631Z,1011.87
2023-02-12T07:30:03.588Z,1011.84
2023-02-12T07:31:03.750Z,1011.87
2023-02-12T07:32:03.961Z,1011.85
2023-02-12T07:33:03.541Z,1011.87
2023-02-12T07:34:03.550Z,1011.90
2023-02-12T07:35:03.539Z,1011.90
2023-02-12T07:36:03.564Z,1011.91
2023-02-12T07:37:03.523Z,1011.94
2023-02-12T07:38:03.548Z,1011.93
2023-02-12T07:39:03.528Z,1011.95
2023-02-12T07:40:03.516Z,1011.98
2023-02-12T07:41:03.466Z,1011.98
2023-02-12T07:42:03.473Z,1011.98
2023-02-12T07:43:03.521Z,1011.99
2023-02-12T07:44:03.445Z,1011.98
2023-02-12T07:45:03.516Z,1012.02
2023-02-12T07:46:03.434Z,1012.03
2023-02-12T07:47:03.421Z,1012.03
2023-02-12T07:48:03.454Z,1012.01
2023-02-12T07:49:03.415Z,1012.01
2023-02-12T07:50:03.386Z,1012.02
2023-02-12T07:51:03.387Z,1012.03
2023-02-12T07:52:03.425Z,1012.02
2023-02-12T07:53:03.353Z,1012.05
2023-02-12T07:54:03.344Z,1012.06
2023-02-12T07:55:03.295Z,1012.08
2023-02-12T07:56:03.267Z,1012.09
2023-02-12T07:57:03.356Z,1012.09
2023-02-12T07:58:03.271Z,1012.09
2023-02-12T07:59:03.275Z,1012.12
2023-02-12T08:00:03.254Z,1012.11
2023-02-12T08:01:03.268Z,1012.13
2023-02-12T08:02:03.290Z,1012.12
2023-02-12T08:03:03.214Z,1012.11
2023-02-12T08:04:03.355Z,1012.11
2023-02-12T08:05:03.210Z,1012.14
2023-02-12T08:06:03.204Z,1012.09
2023-02-12T08:07:03.168Z,1012.05
2023-02-12T08:08:03.150Z,1012.06
2023-02-12T08:09:03.168Z,1012.05
2023-02-12T08:10:03.118Z,1012.06
2023-02-12T08:11:03.099Z,1012.04
2023-02-12T08:12:03.320Z,1012.04
2023-02-12T08:13:03.089Z,1012.04
2023-02-12T08:14:03.060Z,1012.03
2023-02-12T08:15:03.087Z,1012.07
2023-02-12T08:16:03.064Z,1012.09
2023-02-12T08:17:03.024Z,1012.09
2023-02-12T08:18:03.047Z,1012.12
2023-02-12T08:19:16.603Z,1012.12
2023-02-12T08:20:03.038Z,1012.14
2023-02-12T08:21:03.043Z,1012.14
2023-02-12T08:22:02.987Z,1012.16
2023-02-12T08:23:02.976Z,1012.15
2023-02-12T08:24:02.994Z,1012.16
2023-02-12T08:25:03.002Z,1012.18
2023-02-12T08:26:02.946Z,1012.19
2023-02-12T08:27:02.920Z,1012.19
2023-02-12T08:28:02.980Z,1012.19
2023-02-12T08:29:02.917Z,1012.20
2023-02-12T08:30:02.916Z,1012.24
2023-02-12T08:31:02.958Z,1012.23
2023-02-12T08:32:02.939Z,1012.25
2023-02-12T08:33:02.895Z,1012.27
2023-02-12T08:34:02.843Z,1012.26
2023-02-12T08:35:03.043Z,1012.26
2023-02-12T08:36:03.053Z,1012.25
2023-02-12T08:37:02.859Z,1012.23
2023-02-12T08:38:02.843Z,1012.26
2023-02-12T08:39:02.821Z,1012.24
2023-02-12T08:40:02.798Z,1012.25
2023-02-12T08:41:03.074Z,1012.23
2023-02-12T08:42:02.808Z,1012.23
2023-02-12T08:43:02.762Z,1012.25
2023-02-12T08:44:02.821Z,1012.24
2023-02-12T08:45:02.761Z,1012.25
2023-02-12T08:46:02.829Z,1012.23
2023-02-12T08:47:02.734Z,1012.26
2023-02-12T08:48:02.732Z,1012.27
2023-02-12T08:49:02.675Z,1012.26
2023-02-12T08:50:02.694Z,1012.28
2023-02-12T08:51:02.699Z,1012.32
2023-02-12T08:52:02.741Z,1012.29
2023-02-12T08:53:02.620Z,1012.30
2023-02-12T08:54:02.623Z,1012.31
2023-02-12T08:55:02.605Z,1012.33
2023-02-12T08:56:03.144Z,1012.35
2023-02-12T08:57:02.594Z,1012.36
2023-02-12T08:58:02.559Z,1012.39
2023-02-12T08:59:02.547Z,1012.41
2023-02-12T09:00:02.545Z,1012.40
2023-02-12T09:01:02.610Z,1012.40
2023-02-12T09:02:02.837Z,1012.41
2023-02-12T09:03:02.755Z,1012.41
2023-02-12T09:04:02.506Z,1012.46
2023-02-12T09:05:02.509Z,1012.44
2023-02-12T09:06:02.500Z,1012.43
2023-02-12T09:07:02.504Z,1012.45
2023-02-12T09:08:02.478Z,1012.46
2023-02-12T09:09:02.454Z,1012.44
2023-02-12T09:10:02.450Z,1012.45
2023-02-12T09:11:02.471Z,1012.45
2023-02-12T09:12:02.423Z,1012.49
2023-02-12T09:13:02.465Z,1012.47
2023-02-12T09:14:02.440Z,1012.46
2023-02-12T09:15:02.372Z,1012.45
2023-02-12T09:16:02.370Z,1012.43
2023-02-12T09:17:02.479Z,1012.43
2023-02-12T09:18:02.374Z,1012.49
2023-02-12T09:19:02.384Z,1012.48
2023-02-12T09:20:02.592Z,1012.48
2023-02-12T09:21:02.340Z,1012.50
2023-02-12T09:22:02.360Z,1012.51
2023-02-12T09:23:02.304Z,1012.52
2023-02-12T09:24:02.308Z,1012.51
2023-02-12T09:25:02.375Z,1012.53
2023-02-12T09:26:02.288Z,1012.53
2023-02-12T09:27:02.293Z,1012.52
2023-02-12T09:28:02.316Z,1012.54
2023-02-12T09:29:02.257Z,1012.51
2023-02-12T09:30:02.275Z,1012.56
2023-02-12T09:31:02.256Z,1012.56
2023-02-12T09:32:02.317Z,1012.56
2023-02-12T09:33:02.198Z,1012.58
2023-02-12T09:34:02.224Z,1012.58
2023-02-12T09:35:02.220Z,1012.59
2023-02-12T09:36:02.180Z,1012.61
2023-02-12T09:37:02.198Z,1012.60
2023-02-12T09:38:02.153Z,1012.64
2023-02-12T09:39:02.143Z,1012.65
2023-02-12T09:40:02.156Z,1012.69
2023-02-12T09:41:02.117Z,1012.68
2023-02-12T09:42:02.119Z,1012.71
2023-02-12T09:43:02.071Z,1012.70
2023-02-12T09:44:02.290Z,1012.71
2023-02-12T09:45:02.088Z,1012.74
2023-02-12T09:46:02.147Z,1012.77
2023-02-12T09:47:02.254Z,1012.74
2023-02-12T09:48:02.246Z,1012.73
2023-02-12T09:49:02.021Z,1012.75
2023-02-12T09:50:01.994Z,1012.73
2023-02-12T09:51:02.009Z,1012.73
2023-02-12T09:52:01.969Z,1012.74
2023-02-12T09:53:01.978Z,1012.76
2023-02-12T09:54:01.965Z,1012.75
2023-02-12T09:55:01.976Z,1012.79
2023-02-12T09:56:02.014Z,1012.80
2023-02-12T09:57:01.934Z,1012.80
2023-02-12T09:58:02.225Z,1012.86
2023-02-12T09:59:01.913Z,1012.81
2023-02-12T10:00:02.092Z,1012.85
2023-02-12T10:01:01.924Z,1012.82
2023-02-12T10:02:01.872Z,1012.90
2023-02-12T10:03:05.001Z,1012.87
2023-02-12T10:04:02.122Z,1012.86
2023-02-12T10:05:02.612Z,1012.88
2023-02-12T10:06:01.868Z,1012.88
2023-02-12T10:07:01.873Z,1012.85
2023-02-12T10:08:01.844Z,1012.86
2023-02-12T10:09:02.010Z,1012.87
2023-02-12T10:10:01.830Z,1012.87
2023-02-12T10:11:01.813Z,1012.93
2023-02-12T10:12:01.821Z,1012.91
2023-02-12T10:13:01.784Z,1012.96
2023-02-12T10:14:01.761Z,1012.96
2023-02-12T10:15:01.736Z,1012.95
2023-02-12T10:16:01.822Z,1012.95
2023-02-12T10:17:01.762Z,1012.97
2023-02-12T10:18:01.738Z,1013.02
2023-02-12T10:19:01.740Z,1013.04
2023-02-12T10:20:01.942Z,1013.03
2023-02-12T10:21:01.677Z,1013.05
2023-02-12T10:22:01.896Z,1013.01
2023-02-12T10:23:01.713Z,1013.02
2023-02-12T10:24:01.676Z,1012.99
2023-02-12T10:25:01.821Z,1013.01
2023-02-12T10:26:01.620Z,1013.03
2023-02-12T10:27:01.614Z,1013.06
2023-02-12T10:28:01.597Z,1013.00
2023-02-12T10:29:01.592Z,1013.00
2023-02-12T10:30:01.594Z,1012.99
2023-02-12T10:31:01.721Z,1012.98
2023-02-12T10:32:01.554Z,1012.99
2023-02-12T10:33:01.530Z,1013.00
2023-02-12T10:34:01.722Z,1012.98
2023-02-12T10:35:01.505Z,1012.99
2023-02-12T10:36:01.499Z,1012.99
2023-02-12T10:37:01.483Z,1013.01
2023-02-12T10:38:01.479Z,1012.98
2023-02-12T10:39:01.488Z,1012.99
2023-02-12T10:40:01.453Z,1013.01
2023-02-12T10:41:01.445Z,1012.98
2023-02-12T10:42:01.473Z,1013.01
2023-02-12T10:43:01.466Z,1012.96
2023-02-12T10:44:01.447Z,1012.97
2023-02-12T10:45:01.398Z,1013.02
2023-02-12T10:46:01.426Z,1013.00
2023-02-12T10:47:01.377Z,1013.05
2023-02-12T10:48:01.369Z,1013.02
2023-02-12T10:49:01.359Z,1013.02
2023-02-12T10:50:01.394Z,1013.04
2023-02-12T10:51:01.339Z,1013.01
2023-02-12T10:52:01.326Z,1013.06
2023-02-12T10:53:01.316Z,1013.01
2023-02-12T10:54:01.306Z,1013.03
2023-02-12T10:55:01.324Z,1013.04
2023-02-12T10:56:01.292Z,1013.03
2023-02-12T10:57:01.272Z,1013.02
2023-02-12T10:58:01.263Z,1013.03
2023-02-12T10:59:01.258Z,1012.98
2023-02-12T11:00:01.439Z,1013.00
2023-02-12T11:01:01.232Z,1012.99
2023-02-12T11:02:01.233Z,1012.97
2023-02-12T11:03:01.213Z,1012.98
2023-02-12T11:04:01.213Z,1012.98
2023-02-12T11:05:01.258Z,1012.91
2023-02-12T11:06:01.173Z,1012.95
2023-02-12T11:07:01.376Z,1012.94
2023-02-12T11:08:01.357Z,1012.92
2023-02-12T11:09:01.148Z,1012.91
2023-02-12T11:10:01.150Z,1012.89
2023-02-12T11:11:01.155Z,1012.91
2023-02-12T11:12:01.143Z,1012.89
2023-02-12T11:13:01.107Z,1012.90
2023-02-12T11:14:01.313Z,1012.89
2023-02-12T11:15:01.122Z,1012.85
2023-02-12T11:16:01.557Z,1012.88
2023-02-12T11:17:01.067Z,1012.83
2023-02-12T11:18:01.057Z,1012.85
2023-02-12T11:19:01.058Z,1012.80
2023-02-12T11:20:01.031Z,1012.81
2023-02-12T11:21:01.023Z,1012.81
2023-02-12T11:22:01.019Z,1012.80
2023-02-12T11:23:01.007Z,1012.81
2023-02-12T11:24:00.995Z,1012.82
2023-02-12T11:25:00.990Z,1012.81
2023-02-12T11:26:00.984Z,1012.76
2023-02-12T11:27:01.011Z,1012.76
2023-02-12T11:28:01.050Z,1012.76
2023-02-12T11:29:01.109Z,1012.71
2023-02-12T11:30:00.921Z,1012.72
2023-02-12T11:31:01.017Z,1012.74
2023-02-12T11:32:00.929Z,1012.73
2023-02-12T11:33:00.896Z,1012.70
2023-02-12T11:34:00.879Z,1012.72
2023-02-12T11:35:00.876Z,1012.71
2023-02-12T11:36:01.202Z,1012.70
2023-02-12T11:37:00.858Z,1012.73
2023-02-12T11:38:00.878Z,1012.72
2023-02-12T11:39:00.844Z,1012.71
2023-02-12T11:40:00.823Z,1012.69
2023-02-12T11:41:00.814Z,1012.69
2023-02-12T11:42:00.800Z,1012.66
2023-02-12T11:43:00.811Z,1012.67
2023-02-12T11:44:01.025Z,1012.70
2023-02-12T11:45:00.797Z,1012.66
2023-02-12T11:46:00.767Z,1012.60
2023-02-12T11:47:00.841Z,1012.64
2023-02-12T11:48:00.770Z,1012.63
2023-02-12T11:49:00.806Z,1012.65
2023-02-12T11:50:00.746Z,1012.65
2023-02-12T11:51:00.711Z,1012.65
2023-02-12T11:52:01.111Z,1012.64
2023-02-12T11:53:00.745Z,1012.62
2023-02-12T11:54:00.692Z,1012.59
2023-02-12T11:55:00.699Z,1012.60
2023-02-12T11:56:01.061Z,1012.59
2023-02-12T11:57:00.671Z,1012.56
2023-02-12T11:58:00.639Z,1012.60
2023-02-12T11:59:00.730Z,1012.61
2023-02-12T12:00:00.615Z,1012.58
2023-02-12T12:01:00.613Z,1012.60
2023-02-12T12:02:00.667Z,1012.59
2023-02-12T12:03:00.626Z,1012.58
2023-02-12T12:04:00.642Z,1012.61
2023-02-12T12:05:00.569Z,1012.62